createdAt,value
2022-11-03T00:02:08.586Z,4.40
2022-11-03T00:04:35.408Z,4.22
2022-11-03T00:07:02.066Z,5.50
2022-11-03T00:09:28.731Z,5.82
2022-11-03T00:11:55.420Z,5.85
2022-11-03T00:14:22.076Z,4.70
2022-11-03T00:16:48.883Z,4.13
2022-11-03T00:19:17.147Z,4.57
2022-11-03T00:21:44.805Z,3.95
2022-11-03T00:24:12.272Z,4.68
2022-11-03T00:26:39.495Z,5.78
2022-11-03T00:29:08.823Z,4.70
2022-11-03T00:31:37.195Z,4.90
2022-11-03T00:34:04.766Z,5.57
2022-11-03T00:36:43.292Z,5.30
2022-11-03T00:39:10.555Z,5.43
2022-11-03T00:41:37.616Z,5.55
2022-11-03T00:44:04.550Z,6.22
2022-11-03T00:46:34.958Z,5.93
2022-11-03T00:49:02.061Z,5.40
2022-11-03T00:51:33.978Z,5.00
2022-11-03T00:54:02.058Z,5.18
2022-11-03T00:56:37.413Z,3.67
2022-11-03T00:59:05.966Z,4.30
2022-11-03T01:01:38.212Z,4.00
2022-11-03T01:04:28.219Z,4.65
2022-11-03T01:06:57.172Z,5.93
2022-11-03T01:09:31.006Z,5.25
2022-11-03T01:12:27.399Z,5.78
2022-11-03T01:14:54.148Z,5.28
2022-11-03T01:17:24.342Z,5.72
2022-11-03T01:19:51.684Z,5.90
2022-11-03T01:24:46.469Z,5.40
2022-11-03T01:27:18.354Z,6.10
2022-11-03T01:29:45.159Z,5.55
2022-11-03T01:32:12.366Z,5.22
2022-11-03T01:34:39.249Z,4.75
2022-11-03T01:37:06.548Z,3.65
2022-11-03T01:42:00.429Z,2.25
2022-11-03T01:44:50.145Z,3.03
2022-11-03T01:47:35.756Z,3.92
2022-11-03T01:50:08.396Z,4.40
2022-11-03T01:52:47.005Z,5.15
2022-11-03T01:55:21.957Z,4.40
2022-11-03T01:57:55.639Z,5.13
2022-11-03T02:00:22.385Z,4.93
2022-11-03T02:02:50.244Z,4.57
2022-11-03T02:05:19.746Z,3.03
2022-11-03T02:08:10.848Z,3.13
2022-11-03T02:10:38.218Z,3.20
2022-11-03T02:15:38.201Z,6.30
2022-11-03T02:18:06.261Z,4.22
2022-11-03T02:20:33.809Z,3.20
2022-11-03T02:23:21.904Z,2.95
2022-11-03T02:25:51.846Z,3.78
2022-11-03T02:28:25.961Z,3.00
2022-11-03T02:30:58.189Z,2.40
2022-11-03T02:33:48.820Z,3.05
2022-11-03T02:36:41.720Z,3.05
2022-11-03T02:39:21.308Z,3.10
2022-11-03T02:41:49.243Z,3.33
2022-11-03T02:44:19.660Z,3.67
2022-11-03T02:46:51.969Z,3.40
2022-11-03T02:49:18.739Z,2.80
2022-11-03T02:51:45.436Z,3.53
2022-11-03T02:54:18.770Z,3.22
2022-11-03T02:56:53.648Z,2.83
2022-11-03T02:59:26.435Z,2.70
2022-11-03T03:02:01.985Z,3.08
2022-11-03T03:04:31.964Z,2.60
2022-11-03T03:07:07.327Z,2.95
2022-11-03T03:09:44.287Z,3.22
2022-11-03T03:12:12.178Z,4.32
2022-11-03T03:14:42.331Z,3.28
2022-11-03T03:17:28.286Z,2.92
2022-11-03T03:20:24.315Z,2.80
2022-11-03T03:23:06.234Z,2.78
2022-11-03T03:25:46.987Z,2.63
2022-11-03T03:28:25.813Z,2.83
2022-11-03T03:30:55.597Z,2.60
2022-11-03T03:33:23.878Z,2.70
2022-11-03T03:35:52.293Z,3.15
2022-11-03T03:38:25.869Z,3.60
2022-11-03T03:40:57.393Z,4.30
2022-11-03T03:43:26.154Z,4.28
2022-11-03T03:45:57.408Z,4.45
2022-11-03T03:48:24.234Z,4.28
2022-11-03T03:50:51.686Z,4.35
2022-11-03T03:53:19.327Z,5.18
2022-11-03T03:55:51.344Z,4.60
2022-11-03T03:58:18.273Z,4.10
2022-11-03T04:00:45.326Z,5.70
2022-11-03T04:03:20.402Z,4.50
2022-11-03T04:05:47.711Z,4.57
2022-11-03T04:11:02.207Z,5.03
2022-11-03T04:13:47.723Z,4.82
2022-11-03T04:16:33.049Z,5.03
2022-11-03T04:19:18.635Z,4.40
2022-11-03T04:22:04.203Z,4.78
2022-11-03T04:24:31.788Z,5.10
2022-11-03T04:27:05.546Z,5.15
2022-11-03T04:29:32.250Z,5.25
2022-11-03T04:31:59.509Z,5.00
2022-11-03T04:34:26.194Z,5.43
2022-11-03T04:36:52.850Z,6.05
2022-11-03T04:39:20.248Z,6.57
2022-11-03T04:41:47.505Z,6.93
2022-11-03T04:44:16.371Z,6.38
2022-11-03T04:46:45.326Z,6.22
2022-11-03T04:49:20.679Z,6.55
2022-11-03T04:51:48.431Z,5.38
2022-11-03T04:54:23.731Z,6.57
2022-11-03T04:56:50.558Z,7.07
2022-11-03T04:59:17.360Z,7.05
2022-11-03T05:01:45.905Z,7.25
2022-11-03T05:04:16.224Z,7.68
2022-11-03T05:06:53.119Z,6.30
2022-11-03T05:09:24.578Z,5.80
2022-11-03T05:11:51.323Z,6.00
2022-11-03T05:14:22.749Z,6.90
2022-11-03T05:16:53.494Z,6.45
2022-11-03T05:19:37.277Z,6.65
2022-11-03T05:22:05.245Z,5.70
2022-11-03T05:24:33.370Z,6.00
2022-11-03T05:27:00.156Z,6.25
2022-11-03T05:29:35.721Z,5.85
2022-11-03T05:32:02.674Z,6.97
2022-11-03T05:34:38.601Z,6.05
2022-11-03T05:37:26.712Z,6.07
2022-11-03T05:42:22.497Z,6.25
2022-11-03T05:44:51.763Z,5.43
2022-11-03T05:47:24.103Z,6.00
2022-11-03T05:49:54.618Z,5.57
2022-11-03T05:52:23.985Z,5.65
2022-11-03T05:54:51.586Z,6.35
2022-11-03T05:57:18.683Z,6.32
2022-11-03T05:59:49.453Z,7.72
2022-11-03T06:02:42.401Z,7.57
2022-11-03T06:05:19.552Z,6.90
2022-11-03T06:07:46.973Z,8.60
2022-11-03T06:14:24.292Z,6.03
2022-11-03T06:16:57.887Z,7.68
2022-11-03T06:19:28.803Z,7.18
2022-11-03T06:21:58.954Z,5.53
2022-11-03T06:24:31.178Z,6.22
2022-11-03T06:26:58.627Z,6.18
2022-11-03T06:29:26.017Z,6.35
2022-11-03T06:34:36.888Z,5.57
2022-11-03T06:37:16.448Z,5.80
2022-11-03T06:39:43.178Z,5.25
2022-11-03T06:42:13.130Z,6.07
2022-11-03T06:44:45.510Z,6.70
2022-11-03T06:47:30.054Z,8.13
2022-11-03T06:50:00.714Z,6.20
2022-11-03T06:52:35.115Z,6.93
2022-11-03T06:55:16.791Z,6.35
2022-11-03T06:57:47.052Z,5.78
2022-11-03T07:00:35.351Z,6.50
2022-11-03T07:03:19.113Z,6.03
2022-11-03T07:05:45.844Z,6.30
2022-11-03T07:08:23.176Z,7.18
2022-11-03T07:10:57.102Z,6.15
2022-11-03T07:13:24.978Z,6.20
2022-11-03T07:15:52.346Z,7.00
2022-11-03T07:20:48.905Z,7.15
2022-11-03T07:23:20.447Z,6.63
2022-11-03T07:25:54.668Z,6.38
2022-11-03T07:28:25.260Z,5.63
2022-11-03T07:30:51.937Z,6.45
2022-11-03T07:33:26.426Z,6.25
2022-11-03T07:38:47.898Z,5.03
2022-11-03T07:41:20.085Z,5.68
2022-11-03T07:43:57.948Z,5.40
2022-11-03T07:46:25.850Z,6.15
2022-11-03T07:49:03.160Z,5.95
2022-11-03T07:51:34.912Z,5.15
2022-11-03T07:54:21.366Z,5.78
2022-11-03T07:56:55.422Z,7.20
2022-11-03T07:59:32.453Z,6.43
2022-11-03T08:02:00.965Z,4.75
2022-11-03T08:04:30.132Z,4.95
2022-11-03T08:06:56.888Z,5.28
2022-11-03T08:09:23.728Z,5.45
2022-11-03T08:11:51.228Z,5.28
2022-11-03T08:14:18.066Z,7.85
2022-11-03T08:16:44.763Z,4.57
2022-11-03T08:19:11.616Z,5.20
2022-11-03T08:21:38.320Z,4.80
2022-11-03T08:24:05.812Z,6.68
2022-11-03T08:26:32.516Z,4.30
2022-11-03T08:28:59.205Z,4.43
2022-11-03T08:31:25.985Z,4.32
2022-11-03T08:33:52.696Z,4.60
2022-11-03T08:36:20.689Z,5.22
2022-11-03T08:38:47.488Z,6.75
2022-11-03T08:41:14.202Z,4.30
2022-11-03T08:43:40.891Z,4.35
2022-11-03T08:46:15.814Z,4.57
2022-11-03T08:48:45.385Z,4.82
2022-11-03T08:51:14.012Z,3.97
2022-11-03T08:53:45.117Z,4.35
2022-11-03T08:56:14.234Z,4.10
2022-11-03T08:58:44.029Z,4.55
2022-11-03T09:01:10.993Z,4.45
2022-11-03T09:03:38.294Z,4.50
2022-11-03T09:06:05.515Z,4.45
2022-11-03T09:11:18.872Z,5.35
2022-11-03T09:13:45.555Z,5.18
2022-11-03T09:16:12.273Z,4.78
2022-11-03T09:18:38.959Z,4.95
2022-11-03T09:21:06.208Z,4.85
2022-11-03T09:23:33.018Z,3.85
2022-11-03T09:25:59.711Z,3.53
2022-11-03T09:28:26.387Z,3.75
2022-11-03T09:30:53.083Z,4.20
2022-11-03T09:33:19.774Z,3.97
2022-11-03T09:35:46.439Z,3.35
2022-11-03T09:38:13.112Z,3.15
2022-11-03T09:40:39.818Z,3.58
2022-11-03T09:43:07.155Z,2.97
2022-11-03T09:45:34.062Z,3.13
2022-11-03T09:48:02.148Z,3.50
2022-11-03T09:50:28.921Z,3.65
2022-11-03T09:52:57.414Z,3.50
2022-11-03T09:55:26.388Z,4.07
2022-11-03T09:58:00.603Z,4.35
2022-11-03T10:00:28.141Z,3.28
2022-11-03T10:02:55.824Z,3.95
2022-11-03T10:05:29.395Z,3.38
2022-11-03T10:08:06.783Z,3.65
2022-11-03T10:10:34.726Z,3.78
2022-11-03T10:13:01.799Z,4.10
2022-11-03T10:15:28.838Z,3.83
2022-11-03T10:17:56.370Z,4.45
2022-11-03T10:20:23.711Z,4.78
2022-11-03T10:25:26.876Z,3.53
2022-11-03T10:28:20.430Z,3.67
2022-11-03T10:31:10.553Z,3.50
2022-11-03T10:33:55.844Z,3.72
2022-11-03T10:36:28.020Z,4.13
2022-11-03T10:38:55.618Z,3.60
2022-11-03T10:41:24.629Z,3.35
2022-11-03T10:44:18.763Z,3.40
2022-11-03T10:46:59.934Z,3.42
2022-11-03T10:49:39.199Z,3.78
2022-11-03T10:52:21.076Z,3.22
2022-11-03T10:54:49.304Z,3.35
2022-11-03T10:57:16.903Z,4.35
2022-11-03T10:59:45.811Z,4.70
2022-11-03T11:02:21.899Z,3.60
2022-11-03T11:04:51.958Z,4.13
2022-11-03T11:07:26.192Z,5.47
2022-11-03T11:09:54.352Z,4.63
2022-11-03T11:12:25.399Z,4.38
2022-11-03T11:14:57.243Z,8.90
2022-11-03T11:17:44.783Z,4.28
2022-11-03T11:20:30.909Z,6.18
2022-11-03T11:23:29.613Z,4.53
2022-11-03T11:26:09.871Z,4.00
2022-11-03T11:28:44.776Z,3.60
2022-11-03T11:31:30.146Z,3.80
2022-11-03T11:34:23.459Z,3.65
2022-11-03T11:36:55.885Z,3.33
2022-11-03T11:39:28.536Z,3.78
2022-11-03T11:42:14.972Z,4.32
2022-11-03T11:44:47.908Z,4.15
2022-11-03T11:47:45.779Z,3.30
2022-11-03T11:50:20.270Z,3.70
2022-11-03T11:53:09.604Z,3.85
2022-11-03T11:55:43.818Z,3.55
2022-11-03T11:58:27.700Z,3.45
2022-11-03T12:01:19.799Z,3.90
2022-11-03T12:03:47.603Z,3.95
2022-11-03T12:06:15.357Z,4.22
2022-11-03T12:08:42.986Z,4.22
2022-11-03T12:11:12.053Z,4.13
2022-11-03T12:13:51.299Z,3.47
2022-11-03T12:16:31.400Z,4.28
2022-11-03T12:19:37.202Z,3.78
2022-11-03T12:22:09.208Z,3.67
2022-11-03T12:24:37.510Z,4.28
2022-11-03T12:27:39.166Z,4.90
2022-11-03T12:30:15.143Z,6.28
2022-11-03T12:32:41.859Z,6.85
2022-11-03T12:35:09.419Z,6.32
2022-11-03T12:37:36.726Z,6.82
2022-11-03T12:42:30.229Z,6.97
2022-11-03T12:44:56.992Z,6.28
2022-11-03T12:47:23.799Z,6.22
2022-11-03T12:49:50.584Z,5.80
2022-11-03T12:52:17.322Z,6.30
2022-11-03T12:54:44.402Z,5.90
2022-11-03T12:57:11.120Z,6.90
2022-11-03T12:59:37.815Z,5.78
2022-11-03T13:02:04.813Z,6.38
2022-11-03T13:04:31.614Z,6.75
2022-11-03T13:06:58.409Z,6.63
2022-11-03T13:09:25.086Z,6.47
2022-11-03T13:12:10.639Z,6.40
2022-11-03T13:14:37.362Z,6.53
2022-11-03T13:17:04.491Z,6.72
2022-11-03T13:19:31.320Z,7.13
2022-11-03T13:21:57.999Z,6.93
2022-11-03T13:24:24.715Z,6.75
2022-11-03T13:26:51.405Z,6.38
2022-11-03T13:29:18.171Z,6.32
2022-11-03T13:31:44.888Z,5.93
2022-11-03T13:34:11.553Z,6.60
2022-11-03T13:36:38.215Z,7.15
2022-11-03T13:39:04.880Z,6.38
2022-11-03T13:41:31.570Z,6.72
2022-11-03T13:43:58.269Z,7.07
2022-11-03T13:46:25.003Z,6.25
2022-11-03T13:49:43.838Z,7.65
2022-11-03T13:51:38.375Z,7.60
2022-11-03T13:59:38.713Z,7.88
2022-11-03T14:04:53.119Z,7.20
2022-11-03T14:07:19.794Z,7.95
2022-11-03T14:09:46.918Z,8.35
2022-11-03T14:12:31.963Z,7.90
2022-11-03T14:14:59.715Z,7.63
2022-11-03T14:17:26.547Z,7.68
2022-11-03T14:19:56.564Z,8.27
2022-11-03T14:22:26.094Z,7.85
2022-11-03T14:24:52.967Z,7.75
2022-11-03T14:27:20.281Z,8.13
2022-11-03T14:29:49.764Z,8.10
2022-11-03T14:32:17.935Z,8.93
2022-11-03T14:34:45.067Z,8.55
2022-11-03T14:37:13.271Z,8.68
2022-11-03T14:39:40.428Z,8.95
2022-11-03T14:42:14.923Z,9.75
2022-11-03T14:44:42.805Z,9.18
2022-11-03T14:47:11.517Z,9.27
2022-11-03T14:49:38.712Z,8.80
2022-11-03T14:52:07.456Z,9.10
2022-11-03T14:54:35.439Z,9.18
2022-11-03T14:57:02.804Z,9.40
2022-11-03T15:01:57.475Z,8.63
2022-11-03T15:04:24.531Z,9.27
2022-11-03T15:06:51.249Z,9.02
2022-11-03T15:09:18.387Z,8.52
2022-11-03T15:11:46.231Z,8.98
2022-11-03T15:14:13.607Z,9.23
2022-11-03T15:19:07.879Z,8.70
2022-11-03T15:21:34.914Z,9.00
2022-11-03T15:26:49.258Z,10.13
2022-11-03T15:29:15.955Z,10.57
2022-11-03T15:31:47.632Z,8.95
2022-11-03T15:34:15.533Z,10.18
2022-11-03T15:36:42.356Z,9.18
2022-11-03T15:39:09.018Z,10.07
2022-11-03T15:41:35.727Z,9.25
2022-11-03T15:44:02.394Z,9.60
2022-11-03T15:46:29.056Z,9.70
2022-11-03T15:48:57.446Z,9.82
2022-11-03T15:51:24.300Z,9.43
2022-11-03T15:53:56.764Z,10.48
2022-11-03T15:56:25.924Z,9.82
2022-11-03T15:58:52.624Z,10.77
2022-11-03T16:01:19.374Z,10.00
2022-11-03T16:03:46.226Z,10.30
2022-11-03T16:06:13.009Z,10.00
2022-11-03T16:08:39.782Z,10.43
2022-11-03T16:11:06.474Z,10.80
2022-11-03T16:13:33.152Z,11.27
2022-11-03T16:15:59.824Z,11.05
2022-11-03T16:18:26.557Z,11.23
2022-11-03T16:20:53.251Z,11.27
2022-11-03T16:23:19.903Z,11.25
2022-11-03T16:25:46.634Z,10.75
2022-11-03T16:28:13.332Z,11.77
2022-11-03T16:30:40.118Z,10.82
2022-11-03T16:33:07.413Z,12.32
2022-11-03T16:35:34.176Z,11.65
2022-11-03T16:38:00.945Z,11.60
2022-11-03T16:40:28.089Z,11.32
2022-11-03T16:42:55.016Z,10.82
2022-11-03T16:45:25.820Z,11.70
2022-11-03T16:47:52.622Z,35.35
2022-11-03T16:50:20.087Z,26.65
2022-11-03T16:52:48.086Z,23.25
2022-11-03T16:55:16.129Z,19.85
2022-11-03T16:57:42.982Z,18.48
2022-11-03T17:00:15.485Z,22.27
2022-11-03T17:02:42.407Z,24.60
2022-11-03T17:05:10.319Z,22.10
2022-11-03T17:07:37.495Z,19.23
2022-11-03T17:10:06.051Z,21.48
2022-11-03T17:12:32.765Z,13.35
2022-11-03T17:14:59.566Z,13.07
2022-11-03T17:17:26.298Z,11.82
2022-11-03T17:19:52.977Z,11.98
2022-11-03T17:22:22.118Z,12.70
2022-11-03T17:24:49.216Z,13.63
2022-11-03T17:27:21.918Z,12.60
2022-11-03T17:29:52.848Z,14.40
2022-11-03T17:32:30.140Z,18.85
2022-11-03T17:34:57.957Z,21.30
2022-11-03T17:37:25.819Z,19.35
2022-11-03T17:39:52.670Z,20.50
2022-11-03T17:42:28.921Z,20.38
2022-11-03T17:44:57.056Z,22.05
2022-11-03T17:47:24.590Z,22.08
2022-11-03T17:49:51.758Z,20.25
2022-11-03T17:52:28.333Z,21.65
2022-11-03T17:54:58.362Z,24.08
2022-11-03T17:57:26.281Z,18.83
2022-11-03T17:59:55.223Z,14.98
2022-11-03T18:02:32.282Z,15.10
2022-11-03T18:05:21.699Z,18.03
2022-11-03T18:07:49.523Z,14.13
2022-11-03T18:10:16.418Z,14.00
2022-11-03T18:13:05.399Z,15.98
2022-11-03T18:15:34.006Z,13.65
2022-11-03T18:18:02.206Z,13.75
2022-11-03T18:20:30.419Z,14.63
2022-11-03T18:23:10.810Z,18.42
2022-11-03T18:25:37.598Z,29.00
2022-11-03T18:28:04.662Z,33.47
2022-11-03T18:30:31.518Z,31.08
2022-11-03T18:32:58.269Z,21.23
2022-11-03T18:35:28.716Z,15.68
2022-11-03T18:37:56.364Z,12.25
2022-11-03T18:40:23.075Z,24.77
2022-11-03T18:42:49.743Z,21.70
2022-11-03T18:45:18.569Z,15.23
2022-11-03T18:47:45.367Z,18.10
2022-11-03T18:50:19.039Z,17.83
2022-11-03T18:52:49.068Z,15.75
2022-11-03T18:55:16.951Z,15.40
2022-11-03T18:57:44.226Z,15.13
2022-11-03T19:00:22.906Z,18.00
2022-11-03T19:02:50.558Z,15.70
2022-11-03T19:05:18.913Z,16.58
2022-11-03T19:07:48.309Z,15.88
2022-11-03T19:10:17.990Z,20.00
2022-11-03T19:12:45.595Z,17.85
2022-11-03T19:15:23.477Z,15.35
2022-11-03T19:17:54.412Z,13.68
2022-11-03T19:20:21.647Z,14.35
2022-11-03T19:22:48.381Z,16.73
2022-11-03T19:25:15.569Z,16.02
2022-11-03T19:27:45.772Z,17.38
2022-11-03T19:30:15.347Z,17.38
2022-11-03T19:32:46.243Z,14.15
2022-11-03T19:35:21.212Z,15.18
2022-11-03T19:37:59.637Z,14.70
2022-11-03T19:40:26.436Z,14.23
2022-11-03T19:42:53.405Z,13.55
2022-11-03T19:45:22.803Z,13.98
2022-11-03T19:50:47.576Z,12.27
2022-11-03T19:53:20.868Z,13.77
2022-11-03T19:55:48.171Z,12.88
2022-11-03T20:00:52.815Z,11.20
2022-11-03T20:03:20.254Z,11.88
2022-11-03T20:08:19.673Z,11.75
2022-11-03T20:10:47.799Z,13.40
2022-11-03T20:13:16.398Z,13.90
2022-11-03T20:15:43.136Z,12.85
2022-11-03T20:18:11.907Z,14.18
2022-11-03T20:20:40.191Z,14.60
2022-11-03T20:23:08.792Z,11.68
2022-11-03T20:25:36.999Z,11.75
2022-11-03T20:28:19.783Z,11.80
2022-11-03T20:30:46.638Z,11.70
2022-11-03T20:33:18.264Z,11.07
2022-11-03T20:35:46.011Z,10.93
2022-11-03T20:38:15.165Z,11.25
2022-11-03T20:40:42.205Z,13.60
2022-11-03T20:43:27.033Z,13.05
2022-11-03T20:45:55.238Z,11.18
2022-11-03T20:48:22.716Z,11.63
2022-11-03T20:50:50.055Z,12.88
2022-11-03T20:55:45.077Z,8.47
2022-11-03T20:58:14.663Z,9.70
2022-11-03T21:00:42.328Z,10.95
2022-11-03T21:03:53.668Z,10.65
2022-11-03T21:06:17.639Z,11.15
2022-11-03T21:08:45.937Z,11.98
2022-11-03T21:11:27.549Z,12.63
2022-11-03T21:13:58.354Z,15.20
2022-11-03T21:16:44.912Z,16.63
2022-11-03T21:19:37.543Z,9.98
2022-11-03T21:25:18.772Z,7.75
2022-11-03T21:27:46.184Z,8.15
2022-11-03T21:32:41.260Z,9.38
2022-11-03T21:35:14.274Z,8.10
2022-11-03T21:37:41.134Z,9.57
2022-11-03T21:40:08.506Z,9.93
2022-11-03T21:45:20.591Z,11.10
2022-11-03T21:48:12.903Z,11.15
2022-11-03T21:50:40.776Z,11.05
2022-11-03T21:53:08.116Z,10.48
2022-11-03T21:55:35.524Z,10.15
2022-11-03T21:58:02.781Z,8.43
2022-11-03T22:00:29.930Z,7.03
2022-11-03T22:02:56.691Z,8.98
2022-11-03T22:05:23.416Z,6.68
2022-11-03T22:07:50.119Z,7.25
2022-11-03T22:10:17.822Z,8.55
2022-11-03T22:12:44.699Z,9.07
2022-11-03T22:15:29.859Z,6.63
2022-11-03T22:18:04.201Z,6.72
2022-11-03T22:20:49.357Z,5.68
2022-11-03T22:23:34.869Z,4.60
2022-11-03T22:26:20.185Z,5.05
2022-11-03T22:29:06.837Z,6.70
2022-11-03T22:31:42.543Z,6.82
2022-11-03T22:34:28.035Z,6.68
2022-11-03T22:36:54.722Z,5.45
2022-11-03T22:39:40.075Z,7.90
2022-11-03T22:42:25.208Z,7.07
2022-11-03T22:45:10.734Z,8.27
2022-11-03T22:47:37.440Z,7.72
2022-11-03T22:50:04.399Z,7.43
2022-11-03T22:52:31.154Z,6.95
2022-11-03T22:54:57.799Z,6.32
2022-11-03T22:57:24.459Z,6.13
2022-11-03T22:59:51.138Z,5.88
2022-11-03T23:02:17.867Z,6.32
2022-11-03T23:04:46.367Z,6.35
2022-11-03T23:07:13.089Z,6.50
2022-11-03T23:09:39.801Z,7.03
2022-11-03T23:12:06.543Z,7.20
2022-11-03T23:14:52.033Z,6.70
2022-11-03T23:17:18.707Z,6.97
2022-11-03T23:20:03.922Z,7.63
2022-11-03T23:22:30.591Z,7.03
2022-11-03T23:25:00.184Z,6.47
2022-11-03T23:27:27.331Z,6.95
2022-11-03T23:29:54.066Z,6.95
2022-11-03T23:32:20.938Z,6.60
2022-11-03T23:34:47.620Z,6.00
2022-11-03T23:37:14.371Z,7.05
2022-11-03T23:39:41.063Z,6.50
2022-11-03T23:42:07.958Z,5.53
2022-11-03T23:44:53.270Z,4.68
2022-11-03T23:47:38.652Z,5.32
2022-11-03T23:50:05.816Z,4.80
2022-11-03T23:52:32.493Z,4.32
2022-11-03T23:54:59.196Z,4.47
2022-11-03T23:57:44.407Z,3.47
